メインページ
METAR-TAF:

METAR-TAF

空港 :

シカゴ, イリノイ州, アメリカ合衆国

シカゴ・オヘア国際空港

緯度: 41-58-47N, 経度: 087-54-16W, 海抜: 203m

現時点の気象観測

当レポートは29分前の12:51(UTC)に作成
南西の風 4kt
気温 22°C
湿度 60%
気圧 1016 hPa
視程: 16.1km
高度9000ftの雲はほとんどない
高度25000ftの雲はほとんどない

METAR: KORD 251251Z 22004KT 10SM FEW090 FEW250 22/14 A3001 RMK AO2 SLP158 T02220144

時間: 08:20 (13:20 UTC)

予報

当レポートは2時間0分前の11:20(UTC)に作成
予報は25日の 12時(UTC)から 26日の 18時(UTC)まで有効
の風 5kt
視程: 10km
高度9000ftの雲はほとんどない
高度20000ftの雲はほとんどない
25日の 1500時(UTC)から
の風 7kt
視程: 10km
高度5000ftの雲はほとんどない
高度20000ftの雲はほとんどない
25日の 2200時(UTC)から
東/南東の風 10kt
視程: 10km
高度5000ftの雲は散在している
26日の 0100時(UTC)から
南/南東の風 4kt
視程: 10km
高度15000ftの雲はほとんどない
26日の 1400時(UTC)から
南/南西の風 7kt
視程: 10km
高度12000ftの雲は散在している

TAF: KORD 251120Z 2512/2618 17005KT P6SM FEW090 FEW200 FM251500 19007KT P6SM FEW050 FEW200 FM252200 11010KT P6SM SCT050 FM260100 15004KT P6SM FEW150 FM261400 21007KT P6SM SCT120

4,000以上の空港の気象観測と天気予報(METAR報とTAF報)

利用可能な観測所は地図上に黄色い丸と赤い丸で示す。

丸の上にカーソルを重ねると観測所名を参照できる。

次にクリックすると気象観測と天気予報を参照できる。

マップの切り替え:黒色「×」印の緑ボタンをクリックして拡大、「-」印の緑ボタンをクリックして縮小、緑色の三角印をクリックして隣りの地図に切り替え


METAR-TAF: